Погода Туровна 2 недели

Гомельская область, Белоруссия

19 июля-01 августа
  • 19июля
    Сегодня
    +14°
    +27°
    Ясно и безоблачно
    ВремяПогодаТемператураВлажностьДавлениеВетер, м/сВероятность осадков
    00:00Ясно и безоблачно+19°C83 %753 мм0.9 м/с2 %
    03:00Ясно и безоблачно+17°C86 %753 мм1.0 м/с2 %
    06:00Ясно и безоблачно+17°C87 %753 мм1.2 м/с2 %
    09:00Практически безоблачно+21°C68 %753 мм2.5 м/с2 %
    12:00Ясно и безоблачно+24°C54 %753 мм2.8 м/с2 %
    15:00Ясно и безоблачно+26°C49 %752 мм3.5 м/с2 %
    18:00Ясно и безоблачно+25°C50 %751 мм3.5 м/с2 %
    21:00Ясно и безоблачно+21°C65 %750 мм1.4 м/с2 %
  • 20июля
    Суббота
    +13°
    +26°
    Ясно и безоблачно
    ВремяПогодаТемператураВлажностьДавлениеВетер, м/сВероятность осадков
    00:00Ясно и безоблачно+17°C79 %750 мм0.5 м/с2 %
    03:00Ясно и безоблачно+15°C88 %750 мм0.7 м/с2 %
    06:00Ясно и безоблачно+14°C84 %750 мм0.8 м/с2 %
    09:00Ясно и безоблачно+20°C67 %749 мм1.8 м/с2 %
    12:00Практически безоблачно+24°C50 %749 мм2.5 м/с2 %
    15:00Ясно и безоблачно+26°C44 %748 мм3.0 м/с3 %
    18:00Ясно и безоблачно+25°C44 %747 мм2.9 м/с2 %
    21:00Ясно и безоблачно+21°C60 %747 мм1.1 м/с2 %
  • 21июля
    Воскресенье
    +15°
    +27°
    Практически безоблачно
    ВремяПогодаТемператураВлажностьДавлениеВетер, м/сВероятность осадков
    00:00Ясно и безоблачно+17°C72 %747 мм0.3 м/с2 %
    03:00Практически безоблачно+15°C84 %747 мм0.3 м/с2 %
    06:00Ясно и безоблачно+14°C83 %747 мм0.0 м/с2 %
    09:00Небольшая облачность+21°C64 %747 мм1.1 м/с2 %
    12:00Практически безоблачно+25°C48 %747 мм1.4 м/с6 %
    15:00Практически безоблачно+27°C44 %747 мм1.9 м/с17 %
    18:00Ясно и безоблачно+26°C43 %746 мм2.0 м/с12 %
    21:00Ясно и безоблачно+23°C61 %746 мм0.8 м/с2 %
  • 22июля
    Понедельник
    +15°
    +28°
    Небольшая облачность
    ВремяПогодаТемператураВлажностьДавлениеВетер, м/сВероятность осадков
    00:00Ясно и безоблачно+19°C68 %746 мм0.4 м/с2 %
    03:00Ясно и безоблачно+17°C72 %746 мм0.4 м/с2 %
    06:00Ясно и безоблачно+16°C82 %746 мм0.2 м/с2 %
    09:00Ясно и безоблачно+22°C65 %746 мм1.5 м/с2 %
    12:00Практически безоблачно+27°C48 %747 мм1.8 м/с5 %
    15:00Небольшая облачность+29°C45 %746 мм2.6 м/с16 %
    18:00Ясно и безоблачно+27°C44 %746 мм2.3 м/с27 %
    21:00Практически безоблачно+23°C57 %746 мм0.8 м/с8 %
  • 23июля
    Вторник
    +16°
    +29°
    Ясно и безоблачно
    ВремяПогодаТемператураВлажностьДавлениеВетер, м/сВероятность осадков
    00:00Ясно и безоблачно+19°C76 %747 мм0.2 м/с2 %
    03:00Ясно и безоблачно+18°C77 %747 мм0.1 м/с2 %
    06:00Ясно и безоблачно+17°C90 %747 мм0.1 м/с5 %
    09:00Ясно и безоблачно+22°C67 %747 мм1.2 м/с7 %
    12:00Ясно и безоблачно+27°C51 %747 мм1.8 м/с21 %
    15:00Ясно и безоблачно+29°C45 %747 мм2.6 м/с31 %
    18:00Практически безоблачно+26°C41 %746 мм2.6 м/с32 %
    21:00Облачно с прояснениями+23°C60 %746 мм0.8 м/с22 %
Мы используем cookies
Соглашаюсь